Terminal Aerodrome Forecast
Issued by NWS Portland, ME

Home | Current Version | Previous Version | Text Only | Print | Product List | Glossary On
Versions: 1 2 3 4 5 6 7 8 9 10 11 12 13 14 15 16 17 18 19 20 21 22 23 24
000
FTUS41 KGYX 211127
TAFCON
TAF
KCON 211127Z 2112/2212 00000KT 1/2SM FG OVC003 WS015/25040KT
      TEMPO 2113/2115 3SM BR
     FM211500 22008KT P6SM SCT050 BKN200 WS020/26040KT
     FM212100 31007KT P6SM BKN050=

USA.gov is the U.S. government's official web portal to all federal, state and local government web resources and services.